Time;durP1;ratioP1;P1;durP2;ratioP2;P2;SDS_P1;SDS_P2;PMS_P1;PMS_P2;Temp;Humidity;BMP_temperature;BMP_pressure;BME280_temperature;BME280_humidity;BME280_pressure;Samples;Min_cycle;Max_cycle;Signal;HPM_P1;HPM_P2
2023/08/23 00:01:00;;;;;;;1.60;0.60;;;17.00;99.90;;;;;;5052119;28;20233;-87
2023/08/23 00:03:31;;;;;;;0.45;0.40;;;17.20;99.90;;;;;;5037020;28;20317;-86
2023/08/23 00:06:02;;;;;;;1.17;0.55;;;17.30;99.90;;;;;;5036966;28;20192;-86
2023/08/23 00:08:33;;;;;;;1.33;0.35;;;17.40;99.90;;;;;;5035805;28;20212;-86
2023/08/23 00:11:04;;;;;;;0.73;0.40;;;17.40;99.90;;;;;;5053835;28;20243;-85
2023/08/23 00:13:35;;;;;;;0.65;0.57;;;17.60;99.90;;;;;;5043077;28;20224;-86
2023/08/23 00:16:07;;;;;;;2.47;0.40;;;17.40;99.90;;;;;;5052261;28;20224;-86
2023/08/23 00:18:38;;;;;;;1.30;0.40;;;17.50;99.90;;;;;;5051972;28;20197;-85
2023/08/23 00:21:09;;;;;;;0.43;0.30;;;17.40;99.90;;;;;;5052718;28;20204;-86
2023/08/23 00:23:40;;;;;;;1.08;0.50;;;17.50;99.90;;;;;;5050754;28;20204;-85
2023/08/23 00:26:10;;;;;;;0.88;0.40;;;17.60;99.90;;;;;;5052392;28;20204;-87
2023/08/23 00:28:42;;;;;;;0.70;0.45;;;17.70;99.90;;;;;;5043646;28;20221;-86
2023/08/23 00:31:14;;;;;;;0.80;0.40;;;17.80;99.90;;;;;;5033765;28;20554;-85
2023/08/23 00:33:45;;;;;;;0.47;0.47;;;17.80;99.90;;;;;;5048664;28;20232;-86
2023/08/23 00:36:16;;;;;;;0.65;0.30;;;17.80;99.90;;;;;;5052376;28;20204;-85
2023/08/23 00:38:47;;;;;;;0.57;0.40;;;17.80;99.90;;;;;;5053190;28;20204;-86
2023/08/23 00:41:18;;;;;;;0.50;0.50;;;18.00;99.90;;;;;;5051472;28;20192;-85
2023/08/23 00:43:49;;;;;;;0.50;0.50;;;18.00;99.90;;;;;;5049952;28;20193;-86
2023/08/23 00:46:22;;;;;;;0.73;0.43;;;18.10;99.90;;;;;;5052517;28;20565;-84
2023/08/23 00:48:53;;;;;;;0.60;0.60;;;18.00;99.90;;;;;;5048256;28;20192;-86
2023/08/23 00:51:24;;;;;;;0.85;0.63;;;18.10;99.90;;;;;;5050664;28;20197;-86
2023/08/23 00:53:55;;;;;;;0.50;0.50;;;18.00;99.90;;;;;;5052149;28;20220;-87
2023/08/23 00:56:26;;;;;;;1.08;0.50;;;18.20;99.90;;;;;;5050322;28;20196;-85
2023/08/23 00:58:58;;;;;;;0.65;0.40;;;18.40;99.90;;;;;;5051751;28;20318;-86
2023/08/23 01:01:31;;;;;;;0.90;0.63;;;18.30;99.90;;;;;;5048198;28;20204;-86
2023/08/23 01:04:02;;;;;;;0.77;0.50;;;18.50;99.90;;;;;;5060399;28;20204;-86
2023/08/23 01:06:48;;;;;;;1.60;0.60;;;18.50;99.90;;;;;;5060391;28;20194;-86
2023/08/23 01:09:27;;;;;;;0.95;0.45;;;18.40;99.90;;;;;;5063729;28;20242;-87
2023/08/23 01:12:07;;;;;;;2.40;0.60;;;18.40;99.90;;;;;;5045192;28;20185;-85
2023/08/23 01:14:51;;;;;;;1.58;0.50;;;18.50;99.90;;;;;;5052347;28;20227;-86
2023/08/23 01:17:24;;;;;;;1.23;0.68;;;18.60;99.90;;;;;;5048636;28;20207;-86
2023/08/23 01:19:55;;;;;;;0.95;0.52;;;18.80;99.90;;;;;;5050199;28;20201;-86
2023/08/23 01:22:29;;;;;;;0.65;0.65;;;18.90;99.90;;;;;;5064412;28;20215;-86
2023/08/23 01:25:02;;;;;;;0.95;0.60;;;19.20;99.90;;;;;;5059105;28;20207;-87
2023/08/23 01:27:34;;;;;;;0.82;0.68;;;19.00;99.90;;;;;;5052081;28;20258;-86
2023/08/23 01:30:05;;;;;;;1.90;0.50;;;19.00;99.90;;;;;;5049751;28;20197;-86
2023/08/23 01:32:42;;;;;;;0.50;0.50;;;19.10;99.90;;;;;;5048222;28;20193;-85
2023/08/23 01:35:21;;;;;;;1.42;0.52;;;19.30;99.90;;;;;;5040214;28;20229;-86
2023/08/23 01:37:56;;;;;;;2.15;0.60;;;19.40;99.90;;;;;;5047808;28;20196;-86
2023/08/23 01:40:29;;;;;;;1.20;0.63;;;19.50;99.90;;;;;;5046131;28;20644;-87
2023/08/23 01:43:00;;;;;;;2.00;0.70;;;19.40;99.90;;;;;;5041975;28;20185;-87
2023/08/23 01:45:31;;;;;;;0.40;0.40;;;19.30;99.90;;;;;;5051557;28;20200;-87
2023/08/23 01:48:02;;;;;;;1.30;0.80;;;19.30;99.90;;;;;;5051090;28;20207;-87
2023/08/23 01:50:33;;;;;;;0.63;0.50;;;19.30;99.90;;;;;;5052101;28;20201;-86
2023/08/23 01:53:04;;;;;;;0.95;0.50;;;19.50;99.90;;;;;;5039526;28;20204;-87
2023/08/23 01:55:36;;;;;;;2.55;0.73;;;19.60;99.90;;;;;;5049860;28;20228;-87
2023/08/23 01:58:08;;;;;;;1.55;0.60;;;19.50;99.90;;;;;;5051871;28;20572;-87
2023/08/23 02:00:38;;;;;;;1.85;0.98;;;19.40;99.90;;;;;;5026581;28;20649;-87
2023/08/23 02:03:09;;;;;;;0.80;0.80;;;19.40;99.90;;;;;;5017382;28;20715;-88
2023/08/23 02:05:40;;;;;;;1.67;0.82;;;19.50;99.90;;;;;;5032131;28;20194;-87
2023/08/23 02:08:11;;;;;;;1.52;0.65;;;19.50;99.90;;;;;;5019716;28;20205;-86
2023/08/23 02:10:45;;;;;;;4.35;0.80;;;19.60;99.90;;;;;;5023852;28;20276;-87
2023/08/23 02:13:16;;;;;;;2.70;0.80;;;19.70;99.90;;;;;;5024592;28;20545;-88
2023/08/23 02:15:48;;;;;;;2.38;0.95;;;19.70;99.90;;;;;;5022915;28;20440;-87
2023/08/23 02:18:19;;;;;;;1.63;1.00;;;19.80;99.90;;;;;;5028921;28;20209;-88
2023/08/23 02:20:57;;;;;;;3.95;1.10;;;19.80;99.90;;;;;;5030543;28;20264;-88
2023/08/23 02:23:28;;;;;;;2.35;0.80;;;19.90;99.90;;;;;;5012929;28;20243;-89
2023/08/23 02:26:00;;;;;;;1.95;0.70;;;19.90;99.90;;;;;;5036613;28;20228;-89
2023/08/23 02:28:31;;;;;;;3.85;0.70;;;19.90;99.90;;;;;;5030614;28;20208;-87
2023/08/23 02:31:06;;;;;;;2.22;0.70;;;19.70;99.90;;;;;;5024711;28;20568;-88
2023/08/23 02:33:37;;;;;;;1.70;0.88;;;19.70;99.90;;;;;;5032406;28;20204;-88
2023/08/23 02:36:08;;;;;;;3.13;0.80;;;19.50;99.90;;;;;;5027652;28;20213;-89
2023/08/23 02:38:39;;;;;;;4.05;0.90;;;19.40;99.90;;;;;;5029987;28;20201;-88
2023/08/23 02:41:12;;;;;;;3.83;0.80;;;19.40;99.90;;;;;;5032170;28;20217;-89
2023/08/23 02:43:43;;;;;;;1.80;0.77;;;19.20;99.90;;;;;;5009664;28;20213;-91
2023/08/23 02:46:15;;;;;;;2.90;0.60;;;19.10;99.90;;;;;;5028756;28;20221;-88
2023/08/23 02:48:46;;;;;;;1.13;0.45;;;19.10;99.90;;;;;;5029950;28;20201;-90
2023/08/23 02:51:17;;;;;;;1.85;0.60;;;19.10;99.90;;;;;;5029767;28;20193;-89
2023/08/23 02:53:48;;;;;;;1.23;0.50;;;19.00;99.90;;;;;;5027728;28;20220;-88
2023/08/23 02:56:22;;;;;;;1.85;0.70;;;18.90;99.90;;;;;;5023415;28;20243;-89
2023/08/23 02:58:54;;;;;;;1.48;0.70;;;18.90;99.90;;;;;;5024840;28;20689;-89
2023/08/23 03:01:27;;;;;;;4.53;1.17;;;18.90;99.90;;;;;;5032053;28;20193;-90
2023/08/23 03:03:58;;;;;;;3.13;1.00;;;18.70;99.90;;;;;;5026788;28;20199;-89
2023/08/23 03:06:30;;;;;;;3.63;1.25;;;18.60;99.90;;;;;;5021262;28;20228;-89
2023/08/23 03:09:01;;;;;;;2.20;1.00;;;18.30;99.90;;;;;;5025406;28;20194;-88
2023/08/23 03:11:35;;;;;;;3.67;1.00;;;18.10;99.90;;;;;;5027958;28;20199;-88
2023/08/23 03:14:06;;;;;;;1.40;0.70;;;17.90;99.90;;;;;;5033637;28;20225;-88
2023/08/23 03:16:37;;;;;;;1.35;0.70;;;17.70;99.90;;;;;;5031204;28;20198;-89
2023/08/23 03:19:08;;;;;;;2.28;0.70;;;17.60;99.90;;;;;;5032563;28;20205;-88
2023/08/23 03:21:40;;;;;;;1.33;0.57;;;17.50;99.90;;;;;;5039114;28;20197;-88
2023/08/23 03:24:11;;;;;;;3.38;0.65;;;17.30;99.90;;;;;;5044336;28;20610;-88
2023/08/23 03:26:44;;;;;;;1.63;0.60;;;17.20;99.90;;;;;;5047997;28;20201;-87
2023/08/23 03:29:15;;;;;;;0.73;0.50;;;17.20;99.90;;;;;;5049241;28;20217;-88
2023/08/23 03:31:45;;;;;;;1.92;0.60;;;17.20;99.90;;;;;;5032958;28;20253;-88
2023/08/23 03:34:16;;;;;;;0.80;0.63;;;17.10;99.90;;;;;;5023702;28;20289;-88
2023/08/23 03:36:47;;;;;;;1.83;0.88;;;17.10;99.90;;;;;;5031505;28;20272;-89
2023/08/23 03:39:18;;;;;;;1.27;1.00;;;17.10;99.90;;;;;;5027026;28;20212;-88
2023/08/23 03:41:51;;;;;;;3.65;0.73;;;17.20;99.90;;;;;;5031628;28;20190;-88
2023/08/23 03:44:22;;;;;;;1.65;0.68;;;17.10;99.90;;;;;;5037311;28;20208;-87
2023/08/23 03:46:53;;;;;;;2.47;0.70;;;17.00;99.90;;;;;;5031790;28;20216;-88
2023/08/23 03:49:24;;;;;;;1.63;0.68;;;17.10;99.90;;;;;;5031288;28;20209;-89
2023/08/23 03:51:55;;;;;;;2.35;0.70;;;17.20;99.90;;;;;;5031091;28;20190;-86
2023/08/23 03:54:26;;;;;;;1.88;0.85;;;17.40;99.90;;;;;;5030000;28;21604;-89
2023/08/23 03:56:59;;;;;;;1.63;0.70;;;17.50;99.90;;;;;;5011860;28;20220;-88
2023/08/23 03:59:30;;;;;;;2.55;1.30;;;17.60;99.90;;;;;;5099014;22;20231;-89
2023/08/23 04:02:03;;;;;;;2.17;0.88;;;17.70;99.90;;;;;;5023488;28;20225;-87
2023/08/23 04:04:36;;;;;;;3.22;1.17;;;17.70;99.90;;;;;;5013558;28;20677;-89
2023/08/23 04:07:10;;;;;;;3.15;1.10;;;17.70;99.90;;;;;;5013211;28;20194;-89
2023/08/23 04:09:40;;;;;;;3.03;0.95;;;17.70;99.90;;;;;;5003445;28;20214;-90
2023/08/23 04:12:16;;;;;;;2.55;1.20;;;17.80;99.90;;;;;;4992486;28;20199;-89
2023/08/23 04:14:48;;;;;;;7.40;2.40;;;17.70;99.90;;;;;;4983973;28;20226;-88
2023/08/23 04:20:04;;;;;;;3.10;1.20;;;17.90;99.90;;;;;;5027500;28;20201;-91
2023/08/23 04:22:35;;;;;;;3.80;1.10;;;18.00;99.90;;;;;;5035603;28;20186;-89
2023/08/23 04:25:07;;;;;;;3.25;1.25;;;18.00;99.90;;;;;;5064506;23;20228;-89
2023/08/23 04:27:41;;;;;;;1.30;0.85;;;18.00;99.90;;;;;;5052845;28;20196;-88
2023/08/23 04:30:23;;;;;;;3.58;1.17;;;17.90;99.90;;;;;;5049136;28;20228;-90
2023/08/23 04:33:01;;;;;;;3.08;1.08;;;17.90;99.90;;;;;;5058567;28;20204;-88
2023/08/23 04:41:07;;;;;;;5.28;1.30;;;17.70;99.90;;;;;;5078284;28;20216;-89
2023/08/23 04:43:42;;;;;;;3.53;1.25;;;17.70;99.90;;;;;;5089297;28;20245;-88
2023/08/23 04:46:19;;;;;;;3.88;1.35;;;17.70;99.90;;;;;;5082474;28;20244;-90
2023/08/23 04:48:50;;;;;;;3.47;1.10;;;17.60;99.90;;;;;;5075937;28;20200;-87
2023/08/23 04:51:21;;;;;;;4.03;1.52;;;17.70;99.90;;;;;;5077611;28;20227;-87
2023/08/23 04:53:52;;;;;;;5.70;1.15;;;17.70;99.90;;;;;;5058290;28;20246;-89
2023/08/23 04:56:23;;;;;;;7.57;1.42;;;17.80;99.90;;;;;;5063011;28;20208;-88
2023/08/23 04:58:57;;;;;;;5.35;1.55;;;17.80;99.90;;;;;;5069635;28;20633;-90
2023/08/23 05:01:28;;;;;;;5.40;1.60;;;17.90;99.90;;;;;;5065810;28;20203;-89
2023/08/23 05:04:00;;;;;;;3.17;1.10;;;17.90;99.90;;;;;;5063174;28;20227;-88
2023/08/23 05:06:30;;;;;;;5.78;1.27;;;17.80;99.90;;;;;;5080769;28;20657;-89
2023/08/23 05:09:02;;;;;;;6.72;1.95;;;17.70;99.90;;;;;;5073955;28;20545;-90
2023/08/23 05:11:35;;;;;;;3.58;1.30;;;17.60;99.90;;;;;;5087306;28;20188;-89
2023/08/23 05:14:08;;;;;;;6.97;1.42;;;17.60;99.90;;;;;;5055854;28;20196;-89
2023/08/23 05:16:39;;;;;;;4.88;1.27;;;17.60;99.90;;;;;;5069601;28;20220;-89
2023/08/23 05:19:10;;;;;;;5.85;1.30;;;17.60;99.90;;;;;;5062452;28;20207;-88
2023/08/23 05:21:41;;;;;;;4.90;1.60;;;17.50;99.90;;;;;;5057566;28;20669;-86
2023/08/23 05:24:12;;;;;;;6.40;1.75;;;17.50;99.90;;;;;;5074159;28;20204;-88
2023/08/23 05:26:44;;;;;;;4.57;1.50;;;17.50;99.90;;;;;;5074039;28;20196;-88
2023/08/23 05:29:17;;;;;;;9.68;1.90;;;17.60;99.90;;;;;;5074037;28;21164;-89
2023/08/23 05:31:54;;;;;;;7.30;1.80;;;17.60;99.90;;;;;;5067478;28;20746;-89
2023/08/23 05:34:25;;;;;;;5.60;1.55;;;17.60;99.90;;;;;;5071892;28;20199;-88
2023/08/23 05:36:57;;;;;;;4.50;1.50;;;17.70;99.90;;;;;;5070218;28;20219;-87
2023/08/23 05:39:28;;;;;;;4.20;1.27;;;17.70;99.90;;;;;;5068932;28;21123;-93
2023/08/23 05:42:00;;;;;;;9.50;1.67;;;17.70;99.90;;;;;;5074693;28;20294;-92
2023/08/23 05:44:39;;;;;;;5.70;1.63;;;17.70;99.90;;;;;;5073822;28;20204;-94
2023/08/23 05:47:11;;;;;;;6.30;1.40;;;17.80;99.90;;;;;;5073182;28;20199;-94
2023/08/23 05:49:42;;;;;;;8.02;1.70;;;17.80;99.90;;;;;;5068104;28;20196;-91
2023/08/23 05:52:13;;;;;;;7.32;1.60;;;17.70;99.90;;;;;;5074928;28;20648;-90
2023/08/23 05:54:45;;;;;;;6.68;1.52;;;17.60;99.90;;;;;;5062691;28;20281;-90
2023/08/23 05:57:16;;;;;;;6.57;1.30;;;17.60;99.90;;;;;;5069779;28;20700;-90
2023/08/23 05:59:50;;;;;;;4.90;1.45;;;17.60;99.90;;;;;;5077413;28;20728;-90
2023/08/23 06:02:21;;;;;;;5.93;1.70;;;17.60;99.90;;;;;;5066564;28;20310;-89
2023/08/23 06:04:53;;;;;;;6.93;1.48;;;17.60;99.90;;;;;;5062568;28;20428;-89
2023/08/23 06:07:24;;;;;;;6.00;1.48;;;17.50;99.90;;;;;;5067064;28;20291;-90
2023/08/23 06:09:58;;;;;;;8.35;1.58;;;17.50;99.90;;;;;;5059192;28;20274;-91
2023/08/23 06:12:29;;;;;;;5.57;1.48;;;17.50;99.90;;;;;;5071040;28;20203;-89
2023/08/23 06:15:02;;;;;;;8.77;1.80;;;17.50;99.90;;;;;;5063967;28;20220;-90
2023/08/23 06:17:35;;;;;;;6.25;1.80;;;17.40;99.90;;;;;;5066399;28;20210;-89
2023/08/23 06:20:06;;;;;;;6.35;1.63;;;17.50;99.90;;;;;;5065404;28;20212;-90
2023/08/23 06:22:38;;;;;;;6.32;1.60;;;17.50;99.90;;;;;;5060536;28;20642;-91
2023/08/23 06:25:09;;;;;;;5.53;1.67;;;17.50;99.90;;;;;;5056213;28;20192;-89
2023/08/23 06:27:41;;;;;;;5.15;1.50;;;17.50;99.90;;;;;;5066185;28;20587;-88
2023/08/23 06:30:17;;;;;;;6.40;1.75;;;17.50;99.90;;;;;;5062551;28;20215;-89
2023/08/23 06:32:49;;;;;;;10.77;1.80;;;17.50;99.90;;;;;;5070909;28;20332;-87
2023/08/23 06:35:21;;;;;;;6.70;1.67;;;17.60;99.90;;;;;;5069869;28;20200;-91
2023/08/23 06:37:58;;;;;;;7.80;1.30;;;17.60;99.90;;;;;;5057993;28;20207;-87
2023/08/23 06:40:29;;;;;;;8.20;1.63;;;17.60;99.90;;;;;;5061546;28;20235;-89
2023/08/23 06:43:01;;;;;;;6.80;1.52;;;17.60;99.90;;;;;;5060412;28;20211;-90
2023/08/23 06:45:33;;;;;;;6.88;1.48;;;17.60;99.90;;;;;;5059337;28;20224;-90
2023/08/23 06:48:05;;;;;;;8.18;1.75;;;17.60;99.90;;;;;;5065708;28;20219;-90
2023/08/23 06:50:38;;;;;;;6.88;1.25;;;17.60;99.90;;;;;;5086851;28;20259;-90
2023/08/23 06:53:10;;;;;;;4.40;1.10;;;17.60;99.90;;;;;;5068301;28;20221;-90
2023/08/23 06:55:45;;;;;;;8.25;1.63;;;17.50;99.90;;;;;;5061716;28;20239;-89
2023/08/23 06:58:16;;;;;;;5.43;1.30;;;17.50;99.90;;;;;;5054287;28;20624;-90
2023/08/23 07:00:52;;;;;;;7.53;1.35;;;17.50;99.90;;;;;;5062691;28;20201;-88
2023/08/23 07:03:24;;;;;;;4.60;1.38;;;17.50;99.90;;;;;;5062485;28;20353;-90
2023/08/23 07:05:59;;;;;;;10.57;1.70;;;17.50;99.90;;;;;;5073194;28;20195;-87
2023/08/23 07:08:30;;;;;;;8.77;1.83;;;17.60;99.90;;;;;;5071859;28;20210;-92
2023/08/23 07:11:01;;;;;;;6.20;1.60;;;17.50;99.90;;;;;;5068114;28;20208;-92
2023/08/23 07:13:32;;;;;;;4.45;1.48;;;17.60;99.90;;;;;;5071523;28;20203;-92
2023/08/23 07:16:56;;;;;;;5.82;1.40;;;17.60;99.90;;;;;;5073092;28;20222;-90
2023/08/23 07:19:28;;;;;;;6.63;1.42;;;17.60;99.90;;;;;;5062348;28;20200;-92
2023/08/23 07:22:01;;;;;;;6.70;1.38;;;17.60;99.90;;;;;;5076356;28;20283;-89
2023/08/23 07:24:34;;;;;;;6.75;1.20;;;17.60;99.90;;;;;;5070500;28;20660;-90
2023/08/23 07:27:05;;;;;;;4.68;1.30;;;17.60;99.90;;;;;;5068644;28;20299;-90
2023/08/23 07:29:40;;;;;;;5.53;1.38;;;17.60;99.90;;;;;;5069761;28;20219;-91
2023/08/23 07:32:13;;;;;;;6.78;1.38;;;17.60;99.90;;;;;;5062318;28;20203;-90
2023/08/23 07:34:44;;;;;;;7.95;1.50;;;17.60;99.90;;;;;;5070671;28;20193;-90
2023/08/23 07:37:17;;;;;;;5.60;1.23;;;17.60;99.90;;;;;;5069713;28;20227;-91
2023/08/23 07:39:49;;;;;;;7.25;1.58;;;17.60;99.90;;;;;;5076567;28;20232;-90
2023/08/23 07:42:20;;;;;;;6.85;1.58;;;17.60;99.90;;;;;;5060361;28;20660;-91
2023/08/23 07:44:52;;;;;;;5.78;2.00;;;17.60;99.90;;;;;;5077832;28;20196;-90
2023/08/23 07:47:26;;;;;;;8.77;1.40;;;17.60;99.90;;;;;;5058950;28;20735;-90
2023/08/23 07:49:57;;;;;;;6.90;1.83;;;17.60;99.90;;;;;;5066535;28;20311;-90
2023/08/23 07:52:30;;;;;;;5.07;1.52;;;17.60;99.90;;;;;;5067196;28;20200;-90
2023/08/23 07:55:01;;;;;;;7.90;1.67;;;17.60;99.90;;;;;;5044135;28;20274;-89
2023/08/23 07:57:32;;;;;;;7.80;1.52;;;17.60;99.90;;;;;;5064024;28;20216;-90
2023/08/23 08:00:03;;;;;;;6.15;1.50;;;17.60;99.90;;;;;;5058096;28;20432;-90
2023/08/23 08:02:39;;;;;;;5.88;1.70;;;17.60;99.90;;;;;;5063857;28;20196;-93
2023/08/23 08:07:56;;;;;;;6.78;1.65;;;17.70;99.90;;;;;;5077105;28;20267;-95
2023/08/23 08:10:27;;;;;;;6.57;1.48;;;17.70;99.90;;;;;;5074575;28;20616;-93
2023/08/23 08:15:42;;;;;;;4.35;1.55;;;17.70;99.90;;;;;;5074349;28;20195;-93
2023/08/23 08:18:21;;;;;;;8.73;1.58;;;17.70;99.90;;;;;;5080483;28;20673;-92
2023/08/23 08:23:40;;;;;;;7.35;1.45;;;17.70;99.90;;;;;;5060650;28;20259;-92
2023/08/23 08:26:16;;;;;;;2.83;1.27;;;17.70;99.90;;;;;;5072808;28;20256;-92
2023/08/23 08:31:39;;;;;;;6.85;2.10;;;17.70;99.90;;;;;;5078796;28;20652;-94
2023/08/23 08:34:12;;;;;;;8.38;1.95;;;17.70;99.90;;;;;;5082489;28;20209;-92
2023/08/23 08:36:43;;;;;;;10.02;2.60;;;17.70;99.90;;;;;;5076463;28;20226;-91
2023/08/23 08:39:14;;;;;;;7.13;2.10;;;17.70;99.90;;;;;;5072056;28;20244;-91
2023/08/23 08:47:36;;;;;;;6.70;1.58;;;17.70;99.90;;;;;;5069606;28;20199;-92
2023/08/23 08:50:17;;;;;;;7.18;1.67;;;17.70;99.90;;;;;;5073676;28;20199;-92
2023/08/23 08:55:43;;;;;;;8.02;1.90;;;17.70;99.90;;;;;;5081489;28;20211;-92
2023/08/23 08:58:19;;;;;;;8.10;1.50;;;17.70;99.90;;;;;;5083025;28;20219;-91
2023/08/23 09:00:52;;;;;;;8.10;1.90;;;17.60;99.90;;;;;;5072742;28;20263;-92
2023/08/23 09:03:27;;;;;;;8.85;1.90;;;17.70;99.90;;;;;;5085118;28;20268;-91
2023/08/23 09:06:32;;;;;;;5.63;1.58;;;17.70;99.90;;;;;;5068945;28;20259;-92
2023/08/23 09:09:18;;;;;;;5.18;1.50;;;17.70;99.90;;;;;;5074351;28;20268;-92
2023/08/23 09:11:50;;;;;;;7.20;1.70;;;17.70;99.90;;;;;;5082624;28;20242;-92
2023/08/23 09:17:19;;;;;;;10.00;4.32;;;17.70;99.90;;;;;;5079850;28;20205;-90
2023/08/23 09:28:14;;;;;;;7.13;2.92;;;17.70;99.90;;;;;;5059788;22;20225;-91
2023/08/23 09:33:38;;;;;;;6.40;2.28;;;17.70;99.90;;;;;;5046085;28;20199;-92
2023/08/23 09:36:11;;;;;;;6.88;1.90;;;17.70;99.90;;;;;;5036035;28;20192;-94
2023/08/23 09:38:42;;;;;;;6.80;1.55;;;17.70;99.90;;;;;;5028383;28;20206;-93
2023/08/23 09:41:15;;;;;;;7.15;1.70;;;17.70;99.90;;;;;;5024856;28;20209;-91
2023/08/23 09:44:11;;;;;;;4.15;1.77;;;17.70;99.90;;;;;;5004230;28;20220;-91
2023/08/23 09:46:44;;;;;;;7.03;2.00;;;17.70;99.90;;;;;;5023236;28;20197;-88
2023/08/23 09:49:19;;;;;;;6.38;1.92;;;17.70;99.90;;;;;;5034557;28;20221;-90
2023/08/23 09:51:56;;;;;;;6.47;2.00;;;17.70;99.90;;;;;;4999206;28;20209;-85
2023/08/23 09:54:47;;;;;;;7.97;2.00;;;17.60;99.90;;;;;;5004530;28;20241;-92
2023/08/23 09:57:20;;;;;;;6.32;2.45;;;17.60;99.90;;;;;;5011667;28;20226;-86
2023/08/23 09:59:56;;;;;;;9.20;1.95;;;17.60;99.90;;;;;;5023249;28;20645;-91
2023/08/23 10:02:30;;;;;;;6.90;1.63;;;17.60;99.90;;;;;;5013780;28;20199;-93
2023/08/23 10:05:04;;;;;;;8.85;1.85;;;17.60;99.90;;;;;;5018568;28;20225;-93
2023/08/23 10:07:38;;;;;;;5.85;2.00;;;17.60;99.90;;;;;;5003114;28;20205;-92
2023/08/23 10:10:11;;;;;;;4.97;1.60;;;17.60;99.90;;;;;;5021685;28;20252;-94
2023/08/23 10:12:58;;;;;;;5.15;1.80;;;17.60;99.90;;;;;;5013436;28;20201;-90
2023/08/23 10:15:37;;;;;;;4.97;1.38;;;17.60;99.90;;;;;;5007172;28;20621;-92
2023/08/23 10:18:13;;;;;;;6.05;1.80;;;17.60;99.90;;;;;;5022289;28;20226;-94
2023/08/23 10:20:48;;;;;;;6.07;1.95;;;17.60;99.90;;;;;;5018753;28;20567;-91
2023/08/23 10:23:20;;;;;;;4.28;1.60;;;17.60;99.90;;;;;;5018798;28;20288;-92
2023/08/23 10:25:55;;;;;;;6.03;1.67;;;17.60;99.90;;;;;;5014260;28;20215;-92
2023/08/23 10:28:32;;;;;;;4.60;1.50;;;17.60;99.90;;;;;;5031479;28;20226;-93
2023/08/23 10:31:18;;;;;;;5.60;1.80;;;17.60;99.90;;;;;;5011130;28;20202;-94
2023/08/23 10:33:55;;;;;;;5.82;1.60;;;17.60;99.90;;;;;;5007431;28;20198;-94
2023/08/23 10:36:33;;;;;;;7.18;1.73;;;17.60;99.90;;;;;;4983972;28;20234;-94
2023/08/23 10:39:06;;;;;;;4.07;1.30;;;17.60;99.90;;;;;;5010176;28;20230;-93
2023/08/23 10:41:42;;;;;;;6.57;1.60;;;17.60;99.90;;;;;;5011315;28;20194;-93
2023/08/23 10:44:24;;;;;;;5.85;1.90;;;17.60;99.90;;;;;;5016037;28;20201;-94
2023/08/23 10:47:02;;;;;;;4.28;1.35;;;17.50;99.90;;;;;;5012504;28;20202;-93
2023/08/23 10:49:40;;;;;;;7.78;2.10;;;17.50;99.90;;;;;;4982908;28;20293;-93
2023/08/23 10:52:11;;;;;;;7.75;1.73;;;17.50;99.90;;;;;;5017056;28;20205;-91
2023/08/23 10:54:44;;;;;;;5.57;1.67;;;17.50;99.90;;;;;;5002716;28;20217;-91
2023/08/23 10:57:21;;;;;;;7.05;1.40;;;17.50;99.90;;;;;;5006594;28;20206;-93
2023/08/23 10:59:55;;;;;;;6.00;1.40;;;17.40;99.90;;;;;;4983429;28;20230;-93
2023/08/23 11:02:35;;;;;;;5.32;1.50;;;17.50;99.90;;;;;;5010292;28;20199;-91
2023/08/23 11:05:13;;;;;;;7.75;1.80;;;17.40;99.90;;;;;;5000270;28;20194;-91
2023/08/23 11:07:49;;;;;;;4.53;1.45;;;17.40;99.90;;;;;;5014204;28;20185;-92
2023/08/23 11:10:23;;;;;;;5.57;1.40;;;17.40;99.90;;;;;;5001305;28;20182;-94
2023/08/23 11:12:55;;;;;;;4.43;1.50;;;17.40;99.90;;;;;;5011134;28;20205;-92
2023/08/23 11:15:29;;;;;;;7.22;1.70;;;17.30;99.90;;;;;;5020297;28;20193;-93
2023/08/23 11:18:17;;;;;;;6.40;1.73;;;17.40;99.90;;;;;;5024439;28;20226;-91
2023/08/23 11:20:51;;;;;;;3.75;1.15;;;17.30;99.90;;;;;;5023447;28;20206;-94
2023/08/23 11:23:23;;;;;;;6.18;1.50;;;17.30;99.90;;;;;;5012995;28;20214;-95
2023/08/23 11:25:55;;;;;;;4.63;1.38;;;17.20;99.90;;;;;;5024036;28;20264;-93
2023/08/23 11:28:26;;;;;;;4.07;1.35;;;17.20;99.90;;;;;;5018136;28;20206;-92
2023/08/23 11:30:58;;;;;;;5.90;1.40;;;17.20;99.90;;;;;;5012082;28;20198;-90
2023/08/23 11:33:31;;;;;;;5.65;1.55;;;17.20;99.90;;;;;;5013379;28;20197;-88
2023/08/23 11:36:03;;;;;;;6.85;1.63;;;17.20;99.90;;;;;;5006119;28;20198;-88
2023/08/23 11:38:34;;;;;;;5.38;1.50;;;17.20;99.90;;;;;;5015865;28;20308;-90
2023/08/23 11:41:11;;;;;;;5.57;1.50;;;17.20;99.90;;;;;;5014351;28;20229;-92
2023/08/23 11:43:56;;;;;;;4.93;1.67;;;17.20;99.90;;;;;;5026788;28;20234;-93
2023/08/23 11:46:30;;;;;;;6.25;1.60;;;17.20;99.90;;;;;;5034412;28;20182;-92
2023/08/23 11:49:09;;;;;;;6.13;1.52;;;17.20;99.90;;;;;;5028285;28;20221;-89
2023/08/23 12:00:34;;;;;;;10.65;1.85;;;17.20;99.90;;;;;;5126177;23;20239;-88
2023/08/23 12:09:12;;;;;;;4.95;1.40;;;17.20;99.90;;;;;;5031812;28;20208;-90
2023/08/23 12:11:54;;;;;;;5.18;1.50;;;17.30;99.90;;;;;;5045853;28;20194;-91
2023/08/23 12:14:54;;;;;;;9.85;1.70;;;17.30;99.90;;;;;;5033937;28;20220;-91
2023/08/23 12:17:39;;;;;;;6.10;1.60;;;17.20;99.90;;;;;;5037402;28;20220;-90
2023/08/23 12:23:36;;;;;;;9.05;1.90;;;17.20;99.90;;;;;;5039944;28;20201;-90
2023/08/23 12:26:20;;;;;;;7.53;2.10;;;17.10;99.90;;;;;;5038397;28;20185;-92
2023/08/23 12:31:45;;;;;;;5.75;2.10;;;17.10;99.90;;;;;;5041940;28;20285;-91
2023/08/23 12:34:45;;;;;;;7.78;2.17;;;17.10;99.90;;;;;;5027424;28;20197;-91
2023/08/23 12:40:46;;;;;;;5.85;1.90;;;17.00;99.90;;;;;;5043999;28;20198;-88
2023/08/23 12:43:32;;;;;;;7.03;1.80;;;16.90;99.90;;;;;;5045874;28;20197;-89
2023/08/23 12:46:12;;;;;;;5.68;1.80;;;16.90;99.90;;;;;;5025565;28;20248;-91
2023/08/23 12:48:49;;;;;;;5.22;1.70;;;16.80;99.90;;;;;;5030850;28;20194;-91
2023/08/23 12:51:27;;;;;;;5.28;1.58;;;16.80;99.90;;;;;;5034946;28;20299;-93
2023/08/23 12:54:12;;;;;;;4.45;1.90;;;16.80;99.90;;;;;;5028123;28;20209;-90
2023/08/23 12:57:20;;;;;;;5.53;1.75;;;16.60;99.90;;;;;;5052537;28;20189;-91
2023/08/23 13:00:28;;;;;;;7.07;1.73;;;16.60;99.90;;;;;;5046973;28;20268;-90
2023/08/23 13:02:59;;;;;;;5.68;1.80;;;16.50;99.90;;;;;;5033876;28;20194;-90
2023/08/23 13:05:30;;;;;;;7.20;2.53;;;16.50;99.90;;;;;;5031308;28;20202;-90
2023/08/23 13:08:03;;;;;;;6.57;2.30;;;16.50;99.90;;;;;;5016149;28;20549;-90
2023/08/23 13:10:37;;;;;;;9.00;2.50;;;16.40;99.90;;;;;;5017954;28;20225;-91
2023/08/23 13:13:12;;;;;;;5.10;2.40;;;16.30;99.90;;;;;;5032749;28;20257;-92
2023/08/23 13:15:47;;;;;;;9.23;2.60;;;16.30;99.90;;;;;;5043237;28;20613;-91
2023/08/23 13:18:19;;;;;;;9.20;2.25;;;16.30;99.90;;;;;;5030408;28;20584;-93
2023/08/23 13:20:51;;;;;;;6.78;2.33;;;16.30;99.90;;;;;;5032792;28;20222;-92
2023/08/23 13:23:23;;;;;;;7.25;1.92;;;16.20;99.90;;;;;;5036825;28;20201;-92
2023/08/23 13:25:55;;;;;;;8.93;2.60;;;16.20;99.90;;;;;;5041803;28;20274;-91
2023/08/23 13:28:28;;;;;;;6.30;2.20;;;16.20;99.90;;;;;;5038259;28;20208;-91
2023/08/23 13:30:58;;;;;;;6.22;2.22;;;16.20;99.90;;;;;;5021286;28;20195;-91
2023/08/23 13:33:30;;;;;;;9.68;2.20;;;16.20;99.90;;;;;;5039614;28;20205;-91
2023/08/23 13:36:01;;;;;;;5.97;2.05;;;16.20;99.90;;;;;;5019153;28;20206;-92
2023/08/23 13:38:32;;;;;;;4.28;2.00;;;16.30;99.90;;;;;;5023356;28;20657;-91
2023/08/23 13:41:03;;;;;;;5.07;2.13;;;16.30;99.90;;;;;;5021928;28;20298;-90
2023/08/23 13:43:38;;;;;;;5.82;2.35;;;16.30;99.90;;;;;;5020263;28;20205;-90
2023/08/23 13:46:10;;;;;;;5.85;2.15;;;16.20;99.90;;;;;;5031367;28;20262;-91
2023/08/23 13:48:43;;;;;;;5.68;2.10;;;16.20;99.90;;;;;;5015155;28;20198;-91
2023/08/23 13:51:14;;;;;;;6.68;2.33;;;16.20;99.90;;;;;;5030829;28;20221;-91
2023/08/23 13:53:48;;;;;;;9.13;2.40;;;16.20;99.90;;;;;;5025811;28;20194;-90
2023/08/23 13:56:19;;;;;;;5.85;2.42;;;16.20;99.90;;;;;;5011188;28;20206;-90
2023/08/23 13:58:53;;;;;;;7.25;2.55;;;16.20;99.90;;;;;;5029661;28;20217;-90
2023/08/23 14:01:24;;;;;;;5.25;2.60;;;16.10;99.90;;;;;;5028612;28;20205;-91
2023/08/23 14:03:55;;;;;;;6.88;2.45;;;16.10;99.90;;;;;;5022714;28;20205;-89
2023/08/23 14:06:26;;;;;;;7.80;2.45;;;16.10;99.90;;;;;;5035958;28;20258;-92
2023/08/23 14:08:57;;;;;;;6.30;2.20;;;16.10;99.90;;;;;;5034307;28;20220;-91
2023/08/23 14:11:34;;;;;;;4.97;2.30;;;16.10;99.90;;;;;;5022838;28;20326;-92
2023/08/23 14:14:08;;;;;;;8.60;2.28;;;16.10;99.90;;;;;;5034238;28;20197;-92
2023/08/23 14:16:39;;;;;;;7.18;1.98;;;16.00;99.90;;;;;;5006788;28;20285;-92
2023/08/23 14:19:10;;;;;;;8.05;2.10;;;16.00;99.90;;;;;;5017560;28;20313;-92
2023/08/23 14:21:41;;;;;;;6.00;1.98;;;15.90;99.90;;;;;;5031494;28;20186;-92
2023/08/23 14:24:13;;;;;;;5.97;1.65;;;15.90;99.90;;;;;;5049945;28;20191;-90
2023/08/23 14:26:44;;;;;;;5.28;1.85;;;15.90;99.90;;;;;;5018841;28;20198;-90